createdAt,value
2022-09-10T00:01:28.269Z,100495.59
2022-09-10T00:03:54.566Z,100498.56
2022-09-10T00:06:20.762Z,100516.16
2022-09-10T00:08:46.971Z,100527.97
2022-09-10T00:11:13.176Z,100535.28
2022-09-10T00:13:39.560Z,100527.41
2022-09-10T00:16:06.984Z,100519.72
2022-09-10T00:18:33.229Z,100500.03
2022-09-10T00:20:59.579Z,100485.84
2022-09-10T00:23:26.556Z,100477.44
2022-09-10T00:25:52.936Z,100464.28
2022-09-10T00:28:19.581Z,100457.72
2022-09-10T00:30:46.478Z,100461.72
2022-09-10T00:33:12.991Z,100454.09
2022-09-10T00:35:39.236Z,100447.00
2022-09-10T00:38:05.629Z,100431.16
2022-09-10T00:40:31.831Z,100453.75
2022-09-10T00:42:58.066Z,100450.66
2022-09-10T00:45:25.267Z,100472.13
2022-09-10T00:47:51.957Z,100466.94
2022-09-10T00:50:25.393Z,100464.63
2022-09-10T00:52:52.182Z,100495.88
2022-09-10T00:55:18.383Z,100525.78
2022-09-10T00:57:44.815Z,100521.00
2022-09-10T01:00:11.293Z,100504.81
2022-09-10T01:02:37.481Z,100522.13
2022-09-10T01:05:03.913Z,100530.19
2022-09-10T01:07:30.110Z,100520.75
2022-09-10T01:09:57.190Z,100512.34
2022-09-10T01:12:26.098Z,100493.44
2022-09-10T01:15:11.055Z,100485.56
2022-09-10T01:17:39.739Z,100471.66
2022-09-10T01:20:05.909Z,100465.09
2022-09-10T01:22:41.196Z,100460.63
2022-09-10T01:25:10.984Z,100448.78
2022-09-10T01:27:47.822Z,100452.50
2022-09-10T01:30:15.641Z,100447.50
2022-09-10T01:32:44.809Z,100442.56
2022-09-10T01:35:22.777Z,100448.63
2022-09-10T01:37:56.138Z,100460.41
2022-09-10T01:40:22.359Z,100453.31
2022-09-10T01:42:48.554Z,100458.84
2022-09-10T01:45:14.862Z,100462.00
2022-09-10T01:47:59.872Z,100463.34
2022-09-10T01:50:28.772Z,100459.72
2022-09-10T01:53:00.838Z,100446.69
2022-09-10T01:55:31.198Z,100499.13
2022-09-10T01:58:03.348Z,100525.84
2022-09-10T02:00:29.540Z,100539.22
2022-09-10T02:02:58.706Z,100526.88
2022-09-10T02:05:24.941Z,100516.44
2022-09-10T02:07:52.085Z,100509.06
2022-09-10T02:10:18.282Z,100556.25
2022-09-10T02:12:44.870Z,100579.34
2022-09-10T02:15:11.074Z,100583.53
2022-09-10T02:17:37.480Z,100570.97
2022-09-10T02:20:07.328Z,100552.34
2022-09-10T02:22:33.804Z,100534.75
2022-09-10T02:24:59.988Z,100519.25
2022-09-10T02:27:26.186Z,100500.91
2022-09-10T02:29:52.385Z,100501.69
2022-09-10T02:32:18.588Z,100491.44
2022-09-10T02:34:44.781Z,100470.78
2022-09-10T02:37:10.994Z,100469.22
2022-09-10T02:39:37.230Z,100482.03
2022-09-10T02:42:03.522Z,100542.66
2022-09-10T02:44:29.721Z,100558.09
2022-09-10T02:46:55.932Z,100563.34
2022-09-10T02:49:22.120Z,100561.25
2022-09-10T02:51:48.357Z,100545.53
2022-09-10T02:54:14.554Z,100533.47
2022-09-10T02:56:40.762Z,100517.47
2022-09-10T02:59:06.948Z,100501.47
2022-09-10T03:01:33.144Z,100502.22
2022-09-10T03:03:59.345Z,100484.66
2022-09-10T03:06:25.734Z,100473.66
2022-09-10T03:08:51.937Z,100485.47
2022-09-10T03:11:18.141Z,100478.66
2022-09-10T03:13:44.575Z,100480.47
2022-09-10T03:16:10.803Z,100468.94
2022-09-10T03:18:37.067Z,100471.03
2022-09-10T03:21:09.797Z,100472.34
2022-09-10T03:23:37.457Z,100466.06
2022-09-10T03:26:03.778Z,100485.72
2022-09-10T03:28:29.964Z,100483.09
2022-09-10T03:30:56.176Z,100467.91
2022-09-10T03:33:22.369Z,100492.28
2022-09-10T03:35:48.569Z,100504.88
2022-09-10T03:38:14.779Z,100516.38
2022-09-10T03:40:40.978Z,100515.09
2022-09-10T03:43:07.173Z,100512.75
2022-09-10T03:45:33.419Z,100515.34
2022-09-10T03:47:59.652Z,100558.38
2022-09-10T03:50:25.841Z,100561.78
2022-09-10T03:52:52.058Z,100575.38
2022-09-10T03:55:18.257Z,100590.31
2022-09-10T03:57:44.468Z,100583.75
2022-09-10T04:00:10.784Z,100592.13
2022-09-10T04:02:37.050Z,100587.69
2022-09-10T04:05:03.556Z,100587.63
2022-09-10T04:07:29.749Z,100584.47
2022-09-10T04:09:55.962Z,100601.22
2022-09-10T04:12:22.160Z,100605.19
2022-09-10T04:14:48.354Z,100599.22
2022-09-10T04:17:14.552Z,100590.59
2022-09-10T04:19:40.743Z,100559.69
2022-09-10T04:22:06.945Z,100544.75
2022-09-10T04:24:33.145Z,100529.28
2022-09-10T04:26:59.360Z,100525.84
2022-09-10T04:29:25.563Z,100511.44
2022-09-10T04:31:51.831Z,100489.41
2022-09-10T04:34:18.079Z,100525.31
2022-09-10T04:36:44.294Z,100543.13
2022-09-10T04:39:10.491Z,100549.47
2022-09-10T04:41:36.701Z,100541.31
2022-09-10T04:44:02.902Z,100535.28
2022-09-10T04:46:29.105Z,100524.28
2022-09-10T04:48:55.296Z,100506.69
2022-09-10T04:51:21.506Z,100506.97
2022-09-10T04:53:47.698Z,100495.19
2022-09-10T04:56:13.900Z,100481.00
2022-09-10T04:58:40.285Z,100470.78
2022-09-10T05:01:06.991Z,100483.38
2022-09-10T05:03:33.287Z,100490.19
2022-09-10T05:05:59.499Z,100522.13
2022-09-10T05:08:25.700Z,100558.88
2022-09-10T05:10:51.902Z,100563.88
2022-09-10T05:13:18.092Z,100564.06
2022-09-10T05:15:44.290Z,100514.81
2022-09-10T05:18:10.491Z,100431.66
2022-09-10T05:20:36.707Z,100366.78
2022-09-10T05:23:03.039Z,100331.63
2022-09-10T05:25:29.245Z,100294.75
2022-09-10T05:27:55.442Z,100313.84
2022-09-10T05:30:21.650Z,100367.28
2022-09-10T05:32:47.853Z,100435.38
2022-09-10T05:35:14.053Z,100500.94
2022-09-10T05:37:40.253Z,100564.38
2022-09-10T05:40:06.702Z,100598.50
2022-09-10T05:42:32.938Z,100607.69
2022-09-10T05:44:59.126Z,100605.56
2022-09-10T05:47:25.334Z,100586.66
2022-09-10T05:49:51.525Z,100569.03
2022-09-10T05:52:17.739Z,100564.53
2022-09-10T05:54:43.924Z,100581.81
2022-09-10T05:57:10.121Z,100603.06
2022-09-10T05:59:36.323Z,100608.56
2022-09-10T06:02:02.664Z,100616.41
2022-09-10T06:04:28.906Z,100630.56
2022-09-10T06:06:55.119Z,100629.63
2022-09-10T06:09:21.329Z,100641.91
2022-09-10T06:11:47.821Z,100646.16
2022-09-10T06:14:14.016Z,100616.38
2022-09-10T06:16:40.414Z,100590.44
2022-09-10T06:19:06.652Z,100596.72
2022-09-10T06:21:32.853Z,100584.06
2022-09-10T06:23:59.043Z,100573.88
2022-09-10T06:26:25.246Z,100585.88
2022-09-10T06:28:51.441Z,100606.72
2022-09-10T06:31:17.645Z,100615.72
2022-09-10T06:33:43.938Z,100622.66
2022-09-10T06:36:10.150Z,100623.25
2022-09-10T06:38:36.349Z,100622.66
2022-09-10T06:41:03.379Z,100624.97
2022-09-10T06:43:31.369Z,100616.47
2022-09-10T06:45:57.649Z,100604.13
2022-09-10T06:48:49.559Z,100596.81
2022-09-10T06:51:10.300Z,100596.81
2022-09-10T06:53:36.568Z,100591.56
2022-09-10T06:56:03.354Z,100591.75
2022-09-10T06:58:30.216Z,100584.59
2022-09-10T07:00:56.476Z,100579.84
2022-09-10T07:03:22.705Z,100576.31
2022-09-10T07:05:48.905Z,100575.53
2022-09-10T07:08:15.283Z,100563.16
2022-09-10T07:10:41.736Z,100572.13
2022-09-10T07:13:07.932Z,100567.91
2022-09-10T07:15:34.351Z,100547.75
2022-09-10T07:18:00.589Z,100528.16
2022-09-10T07:20:26.806Z,100507.66
2022-09-10T07:22:53.033Z,100492.59
2022-09-10T07:25:19.234Z,100480.09
2022-09-10T07:27:45.658Z,100492.47
2022-09-10T07:30:12.085Z,100494.69
2022-09-10T07:32:38.524Z,100459.72
2022-09-10T07:35:04.958Z,100438.16
2022-09-10T07:37:33.475Z,100399.75
2022-09-10T07:39:59.868Z,100349.09
2022-09-10T07:42:26.149Z,100361.25
2022-09-10T07:44:52.374Z,100342.50
2022-09-10T07:47:18.585Z,100390.16
2022-09-10T07:49:44.777Z,100364.78
2022-09-10T07:52:11.105Z,100409.25
2022-09-10T07:54:37.349Z,100398.28
2022-09-10T07:57:03.821Z,100439.31
2022-09-10T07:59:30.008Z,100426.50
2022-09-10T08:01:56.542Z,100448.50
2022-09-10T08:04:22.756Z,100407.34
2022-09-10T08:06:48.961Z,100437.88
2022-09-10T08:09:15.159Z,100452.88
2022-09-10T08:11:41.375Z,100450.84
2022-09-10T08:14:07.574Z,100452.50
2022-09-10T08:16:33.807Z,100385.91
2022-09-10T08:19:00.005Z,100438.63
2022-09-10T08:21:26.209Z,100366.72
2022-09-10T08:23:53.051Z,100387.59
2022-09-10T08:26:19.394Z,100430.53
2022-09-10T08:28:45.590Z,100449.81
2022-09-10T08:31:11.918Z,100483.69
2022-09-10T08:33:38.531Z,100455.19
2022-09-10T08:36:05.001Z,100367.81
2022-09-10T08:38:31.974Z,100340.31
2022-09-10T08:40:58.222Z,100325.50
2022-09-10T08:43:27.420Z,100334.53
2022-09-10T08:45:53.642Z,100374.22
2022-09-10T08:48:20.562Z,100346.81
2022-09-10T08:50:48.101Z,100277.34
2022-09-10T08:53:22.655Z,100337.47
2022-09-10T08:55:49.150Z,100336.47
2022-09-10T08:58:27.093Z,100355.84
2022-09-10T09:00:55.908Z,100332.56
2022-09-10T09:03:27.793Z,100290.44
2022-09-10T09:06:00.844Z,100295.56
2022-09-10T09:08:30.911Z,100258.06
2022-09-10T09:10:59.438Z,100338.19
2022-09-10T09:13:28.606Z,100379.53
2022-09-10T09:15:57.703Z,100408.41
2022-09-10T09:18:27.372Z,100340.41
2022-09-10T09:20:56.980Z,100325.56
2022-09-10T09:23:32.536Z,100327.22
2022-09-10T09:26:03.131Z,100391.16
2022-09-10T09:28:32.355Z,100414.94
2022-09-10T09:30:58.605Z,100439.97
2022-09-10T09:33:24.806Z,100336.66
2022-09-10T09:35:55.681Z,100352.75
2022-09-10T09:38:23.110Z,100601.38
2022-09-10T09:40:50.076Z,100732.16
2022-09-10T09:43:25.318Z,100700.63
2022-09-10T09:45:53.985Z,100601.22
2022-09-10T09:48:20.787Z,100697.03
2022-09-10T09:50:48.194Z,100652.16
2022-09-10T09:53:19.361Z,100560.81
2022-09-10T09:56:11.669Z,100462.16
2022-09-10T09:58:37.902Z,100456.41
2022-09-10T10:01:04.170Z,100346.41
2022-09-10T10:03:31.180Z,100359.88
2022-09-10T10:06:03.826Z,100298.19
2022-09-10T10:08:31.153Z,100160.31
2022-09-10T10:10:57.471Z,100215.69
2022-09-10T10:13:23.797Z,100012.91
2022-09-10T10:15:50.123Z,100110.03
2022-09-10T10:18:22.466Z,100183.75
2022-09-10T10:20:49.042Z,100137.59
2022-09-10T10:23:47.497Z,100199.25
2022-09-10T10:26:19.522Z,100414.00
2022-09-10T10:28:51.764Z,100561.66
2022-09-10T10:31:18.135Z,100588.50
2022-09-10T10:33:56.394Z,100589.00
2022-09-10T10:36:24.321Z,100769.78
2022-09-10T10:39:09.330Z,100783.56
2022-09-10T10:41:39.342Z,100698.94
2022-09-10T10:44:05.477Z,100413.13
2022-09-10T10:46:43.611Z,100356.41
2022-09-10T10:49:18.837Z,100255.41
2022-09-10T10:51:48.501Z,100073.16
2022-09-10T10:54:33.660Z,100155.19
2022-09-10T10:57:05.583Z,100301.53
2022-09-10T10:59:50.598Z,100452.22
2022-09-10T11:02:33.677Z,100647.69
2022-09-10T11:05:00.898Z,100596.63
2022-09-10T11:07:37.555Z,100677.75
2022-09-10T11:10:05.031Z,100475.19
2022-09-10T11:12:35.492Z,100354.38
2022-09-10T11:15:03.047Z,100477.16
2022-09-10T11:17:29.197Z,100621.00
2022-09-10T11:20:30.268Z,100758.25
2022-09-10T11:23:02.809Z,100848.91
2022-09-10T11:25:30.646Z,100829.66
2022-09-10T11:28:16.440Z,100831.72
2022-09-10T11:30:43.742Z,100807.53
2022-09-10T11:33:13.019Z,100769.78
2022-09-10T11:35:43.749Z,100764.50
2022-09-10T11:38:15.550Z,100673.84
2022-09-10T11:40:57.600Z,100627.88
2022-09-10T11:43:29.237Z,100625.09
2022-09-10T11:45:56.762Z,100691.59
2022-09-10T11:48:24.690Z,100585.81
2022-09-10T11:50:55.097Z,100629.75
2022-09-10T11:53:21.813Z,100664.72
2022-09-10T11:55:54.090Z,100676.88
2022-09-10T11:58:22.096Z,100704.16
2022-09-10T12:00:51.610Z,100737.53
2022-09-10T12:03:21.914Z,100712.72
2022-09-10T12:05:52.970Z,100735.63
2022-09-10T12:08:31.284Z,100696.75
2022-09-10T12:11:17.835Z,100747.63
2022-09-10T12:13:44.189Z,100754.19
2022-09-10T12:16:16.798Z,100702.72
2022-09-10T12:18:44.120Z,100703.81
2022-09-10T12:21:29.173Z,100720.25
2022-09-10T12:23:55.625Z,100706.06
2022-09-10T12:26:21.826Z,100565.94
2022-09-10T12:28:47.985Z,100573.09
2022-09-10T12:31:17.265Z,100543.06
2022-09-10T12:33:43.475Z,100413.50
2022-09-10T12:36:09.986Z,100295.44
2022-09-10T12:38:45.532Z,100182.41
2022-09-10T12:41:12.556Z,100334.88
2022-09-10T12:43:38.797Z,100388.22
2022-09-10T12:46:11.170Z,100423.41
2022-09-10T12:48:41.350Z,100471.84
2022-09-10T12:51:10.614Z,100532.25
2022-09-10T12:53:41.496Z,100568.25
2022-09-10T12:56:26.580Z,100617.31
2022-09-10T12:59:09.853Z,100676.94
2022-09-10T13:01:42.964Z,100724.09
2022-09-10T13:04:23.125Z,100785.53
2022-09-10T13:06:49.400Z,100787.41
2022-09-10T13:09:19.810Z,100780.44
2022-09-10T13:11:47.035Z,100771.81
2022-09-10T13:14:16.753Z,100792.31
2022-09-10T13:16:42.958Z,100784.84
2022-09-10T13:19:12.161Z,100762.91
2022-09-10T13:21:38.308Z,100793.75
2022-09-10T13:24:13.997Z,100814.13
2022-09-10T13:26:50.052Z,100835.16
2022-09-10T13:29:26.446Z,100839.03
2022-09-10T13:32:00.028Z,100811.13
2022-09-10T13:34:36.012Z,100813.97
2022-09-10T13:37:05.256Z,100778.84
2022-09-10T13:39:50.319Z,100747.00
2022-09-10T13:42:39.360Z,100715.22
2022-09-10T13:45:18.609Z,100698.91
2022-09-10T13:47:46.124Z,100674.81
2022-09-10T13:50:16.686Z,100644.34
2022-09-10T13:52:43.588Z,100600.88
2022-09-10T13:55:16.293Z,100579.06
2022-09-10T13:57:42.897Z,100640.69
2022-09-10T14:00:15.280Z,100683.88
2022-09-10T14:02:45.862Z,100697.94
2022-09-10T14:05:41.500Z,100686.53
2022-09-10T14:08:11.298Z,100728.44
2022-09-10T14:10:47.581Z,100776.13
2022-09-10T14:13:14.253Z,100800.22
2022-09-10T14:15:40.897Z,100803.72
2022-09-10T14:18:07.782Z,100794.13
2022-09-10T14:20:34.303Z,100788.16
2022-09-10T14:23:01.535Z,100768.47
2022-09-10T14:25:31.908Z,100718.13
2022-09-10T14:28:16.403Z,100716.88
2022-09-10T14:30:43.011Z,100736.94
2022-09-10T14:33:28.936Z,100715.91
2022-09-10T14:35:55.198Z,100739.31
2022-09-10T14:38:21.448Z,100744.09
2022-09-10T14:40:47.722Z,100714.91
2022-09-10T14:43:14.468Z,100716.94
2022-09-10T14:45:44.548Z,100727.59
2022-09-10T14:48:29.586Z,100714.78
2022-09-10T14:51:03.045Z,100716.06
2022-09-10T14:53:29.241Z,100721.94
2022-09-10T14:55:55.433Z,100726.16
2022-09-10T14:58:21.641Z,100731.59
2022-09-10T15:00:47.833Z,100712.78
2022-09-10T15:03:14.045Z,100721.00
2022-09-10T15:05:40.236Z,100704.50
2022-09-10T15:08:06.464Z,100669.09
2022-09-10T15:10:32.654Z,100643.38
2022-09-10T15:12:58.863Z,100616.69
2022-09-10T15:15:25.062Z,100564.47
2022-09-10T15:17:51.256Z,100554.06
2022-09-10T15:20:17.453Z,100528.97
2022-09-10T15:22:43.646Z,100539.88
2022-09-10T15:25:25.913Z,100534.56
2022-09-10T15:27:52.109Z,100562.13
2022-09-10T15:30:18.318Z,100578.81
2022-09-10T15:32:44.509Z,100582.72
2022-09-10T15:35:10.712Z,100593.28
2022-09-10T15:37:36.915Z,100601.22
2022-09-10T15:40:03.735Z,100626.00
2022-09-10T15:42:30.135Z,100681.84
2022-09-10T15:44:56.336Z,100688.50
2022-09-10T15:47:22.538Z,100698.97
2022-09-10T15:49:48.740Z,100697.28
2022-09-10T15:52:14.947Z,100708.84
2022-09-10T15:54:41.153Z,100700.69
2022-09-10T15:57:07.344Z,100648.25
2022-09-10T15:59:33.543Z,100674.13
2022-09-10T16:01:59.747Z,100686.25
2022-09-10T16:04:25.949Z,100682.38
2022-09-10T16:06:52.151Z,100707.56
2022-09-10T16:09:18.356Z,100735.84
2022-09-10T16:11:44.544Z,100769.03
2022-09-10T16:14:11.702Z,100786.22
2022-09-10T16:16:37.999Z,100807.47
2022-09-10T16:19:04.421Z,100809.44
2022-09-10T16:21:31.175Z,100812.25
2022-09-10T16:23:57.893Z,100804.84
2022-09-10T16:26:25.000Z,100796.50
2022-09-10T16:29:01.112Z,100800.81
2022-09-10T16:31:28.098Z,100802.66
2022-09-10T16:33:55.239Z,100792.66
2022-09-10T16:36:21.531Z,100792.38
2022-09-10T16:38:51.096Z,100774.66
2022-09-10T16:41:17.284Z,100763.97
2022-09-10T16:43:43.494Z,100769.84
2022-09-10T16:46:10.227Z,100761.75
2022-09-10T16:48:36.931Z,100767.84
2022-09-10T16:51:03.089Z,100766.66
2022-09-10T16:53:29.341Z,100768.81
2022-09-10T16:55:59.362Z,100761.16
2022-09-10T16:58:25.552Z,100751.84
2022-09-10T17:00:51.769Z,100755.44
2022-09-10T17:03:17.967Z,100752.03
2022-09-10T17:05:44.533Z,100753.41
2022-09-10T17:08:10.734Z,100745.53
2022-09-10T17:10:36.956Z,100740.91
2022-09-10T17:13:03.165Z,100723.53
2022-09-10T17:15:29.373Z,100718.06
2022-09-10T17:17:55.568Z,100717.38
2022-09-10T17:20:21.775Z,100715.59
2022-09-10T17:22:47.965Z,100709.84
2022-09-10T17:25:14.290Z,100708.06
2022-09-10T17:27:40.494Z,100702.28
2022-09-10T17:30:06.968Z,100700.75
2022-09-10T17:32:33.166Z,100695.88
2022-09-10T17:34:59.383Z,100689.66
2022-09-10T17:37:25.585Z,100684.25
2022-09-10T17:39:51.824Z,100687.03
2022-09-10T17:42:18.212Z,100695.81
2022-09-10T17:44:44.418Z,100688.13
2022-09-10T17:47:10.601Z,100692.09
2022-09-10T17:49:36.812Z,100690.72
2022-09-10T17:52:03.041Z,100696.94
2022-09-10T17:54:29.236Z,100687.16
2022-09-10T17:56:55.435Z,100684.97
2022-09-10T17:59:21.641Z,100680.19
2022-09-10T18:01:47.900Z,100684.97
2022-09-10T18:04:14.140Z,100679.75
2022-09-10T18:06:40.325Z,100682.59
2022-09-10T18:09:06.552Z,100691.72
2022-09-10T18:11:33.594Z,100701.00
2022-09-10T18:13:59.780Z,100700.72
2022-09-10T18:16:26.757Z,100709.56
2022-09-10T18:18:54.346Z,100716.53
2022-09-10T18:21:27.664Z,100710.19
2022-09-10T18:23:54.768Z,100702.56
2022-09-10T18:26:21.557Z,100698.41
2022-09-10T18:28:56.508Z,100698.19
2022-09-10T18:31:27.044Z,100688.69
2022-09-10T18:33:53.328Z,100684.00
2022-09-10T18:36:19.533Z,100687.13
2022-09-10T18:38:45.806Z,100686.03
2022-09-10T18:41:18.141Z,100665.66
2022-09-10T18:43:44.988Z,100666.16
2022-09-10T18:46:11.212Z,100675.69
2022-09-10T18:48:37.424Z,100673.63
2022-09-10T18:51:06.829Z,100669.94
2022-09-10T18:53:33.131Z,100674.34
2022-09-10T18:56:04.830Z,100676.28
2022-09-10T18:58:31.017Z,100673.09
2022-09-10T19:01:11.792Z,100669.88
2022-09-10T19:03:39.858Z,100673.44
2022-09-10T19:06:06.270Z,100668.72
2022-09-10T19:08:32.497Z,100666.09
2022-09-10T19:10:58.721Z,100658.75
2022-09-10T19:13:24.913Z,100661.63
2022-09-10T19:15:54.723Z,100662.94
2022-09-10T19:18:20.963Z,100658.13
2022-09-10T19:20:47.165Z,100658.25
2022-09-10T19:23:13.352Z,100660.84
2022-09-10T19:25:39.554Z,100665.06
2022-09-10T19:28:05.758Z,100656.88
2022-09-10T19:30:36.616Z,100653.59
2022-09-10T19:33:02.814Z,100650.44
2022-09-10T19:35:29.012Z,100638.75
2022-09-10T19:37:55.211Z,100636.41
2022-09-10T19:40:21.413Z,100652.88
2022-09-10T19:42:47.605Z,100642.41
2022-09-10T19:45:13.796Z,100651.69
2022-09-10T19:47:39.999Z,100652.88
2022-09-10T19:50:06.256Z,100653.94
2022-09-10T19:52:32.446Z,100659.22
2022-09-10T19:54:58.663Z,100656.78
2022-09-10T19:57:24.855Z,100652.88
2022-09-10T19:59:51.052Z,100657.16
2022-09-10T20:02:17.284Z,100664.13
2022-09-10T20:04:43.557Z,100664.56
2022-09-10T20:07:09.749Z,100673.84
2022-09-10T20:09:39.820Z,100676.47
2022-09-10T20:12:06.403Z,100668.75
2022-09-10T20:14:32.596Z,100664.06
2022-09-10T20:16:58.802Z,100671.13
2022-09-10T20:19:24.988Z,100674.16
2022-09-10T20:21:51.191Z,100673.72
2022-09-10T20:24:17.389Z,100679.34
2022-09-10T20:26:43.600Z,100694.84
2022-09-10T20:29:10.544Z,100696.44
2022-09-10T20:31:36.830Z,100688.72
2022-09-10T20:34:03.908Z,100688.47
2022-09-10T20:36:30.149Z,100678.84
2022-09-10T20:38:56.342Z,100677.16
2022-09-10T20:41:22.547Z,100691.50
2022-09-10T20:43:51.887Z,100698.44
2022-09-10T20:46:18.463Z,100707.97
2022-09-10T20:48:48.795Z,100706.09
2022-09-10T20:51:15.474Z,100704.06
2022-09-10T20:53:41.661Z,100712.16
2022-09-10T20:56:08.869Z,100713.59
2022-09-10T20:58:35.570Z,100716.22
2022-09-10T21:01:08.774Z,100714.31
2022-09-10T21:03:34.964Z,100710.16
2022-09-10T21:06:01.161Z,100705.69
2022-09-10T21:08:27.625Z,100705.16
2022-09-10T21:10:53.821Z,100707.00
2022-09-10T21:13:23.269Z,100710.66
2022-09-10T21:15:51.250Z,100707.25
2022-09-10T21:18:17.456Z,100702.56
2022-09-10T21:20:43.639Z,100702.56
2022-09-10T21:23:09.845Z,100698.78
2022-09-10T21:25:36.046Z,100689.81
2022-09-10T21:28:02.338Z,100685.34
2022-09-10T21:30:28.538Z,100691.06
2022-09-10T21:32:54.751Z,100681.63
2022-09-10T21:35:20.949Z,100680.53
2022-09-10T21:37:47.148Z,100676.75
2022-09-10T21:40:13.365Z,100679.41
2022-09-10T21:42:39.634Z,100681.53
2022-09-10T21:45:06.078Z,100675.97
2022-09-10T21:47:32.295Z,100673.00
2022-09-10T21:49:58.493Z,100678.53
2022-09-10T21:52:24.693Z,100685.72
2022-09-10T21:54:50.894Z,100685.56
2022-09-10T21:57:17.106Z,100699.63
2022-09-10T21:59:43.297Z,100699.94
2022-09-10T22:02:09.597Z,100696.78
2022-09-10T22:04:35.832Z,100709.47
2022-09-10T22:07:02.040Z,100710.31
2022-09-10T22:09:28.228Z,100715.88
2022-09-10T22:11:54.472Z,100713.25
2022-09-10T22:14:21.479Z,100706.41
2022-09-10T22:16:47.718Z,100712.78
2022-09-10T22:19:15.180Z,100708.03
2022-09-10T22:21:41.387Z,100703.31
2022-09-10T22:24:11.137Z,100713.91
2022-09-10T22:26:39.066Z,100705.81
2022-09-10T22:29:05.272Z,100705.22
2022-09-10T22:31:32.192Z,100697.09
2022-09-10T22:33:59.273Z,100702.38
2022-09-10T22:36:26.191Z,100704.22
2022-09-10T22:38:53.130Z,100703.19
2022-09-10T22:41:19.450Z,100698.72
2022-09-10T22:43:45.681Z,100703.97
2022-09-10T22:46:11.954Z,100696.81
2022-09-10T22:48:38.646Z,100699.41
2022-09-10T22:51:05.157Z,100691.16
2022-09-10T22:53:31.370Z,100695.69
2022-09-10T22:55:57.570Z,100693.06
2022-09-10T22:58:23.942Z,100689.44
2022-09-10T23:00:50.137Z,100690.66
2022-09-10T23:03:16.366Z,100696.44
2022-09-10T23:05:42.580Z,100702.47
2022-09-10T23:08:08.792Z,100694.50
2022-09-10T23:10:34.990Z,100692.88
2022-09-10T23:13:01.210Z,100693.03
2022-09-10T23:15:29.718Z,100696.72
2022-09-10T23:17:55.916Z,100690.97
2022-09-10T23:20:22.104Z,100697.34
2022-09-10T23:22:48.316Z,100691.38
2022-09-10T23:25:14.523Z,100701.19
2022-09-10T23:27:40.728Z,100707.31
2022-09-10T23:30:07.065Z,100709.28
2022-09-10T23:32:33.252Z,100712.63
2022-09-10T23:34:59.456Z,100713.38
2022-09-10T23:37:25.662Z,100715.47
2022-09-10T23:39:51.921Z,100718.84
2022-09-10T23:42:18.150Z,100714.59
2022-09-10T23:44:44.368Z,100715.09
2022-09-10T23:47:10.570Z,100725.63
2022-09-10T23:49:36.780Z,100722.69
2022-09-10T23:52:02.978Z,100724.28
2022-09-10T23:54:29.188Z,100729.53
2022-09-10T23:56:55.396Z,100730.13
2022-09-10T23:59:21.597Z,100735.94
